Pineville, MO (64856)

4:41 PM CDT on March 31, 2015 (GMT -0500)
Brush Creek | | Change Station
CLOSE
Current Station
Personal Weather Station
Location: Noel, MO
Elevation: 1056 ft
Nearby Weather Stations

Elev 1056 ft 36.51 °N, 94.34 °W | Updated 43 seconds ago

Clear
Clear
78.4 °F
Feels Like 79 °F
N
9.6
Wind Variable Wind from WNW
Gusts 9.8 mph

Today
High -- | Low -- °F
--% Chance of Precip.
Yesterday
High -- | Low -- °F
Precip. -- in
7:05 AM 7:38 PM
Waxing Gibbous, 89% visible
Pressure 29.91 in
Visibility 10.0 miles
Clouds Clear
Heat Index 79 °F
Dew Point 52 °F
Humidity 40%
Rainfall 0.00 in
Snow Depth Not available.
UV 2.0 out of 12
Pollen 10.70 out of 12
Air Quality Not available.
Flu Activity Not available.
METAR KVBT 312135Z AUTO 32008KT 10SM CLR 27/11 A2991 RMK AO1

More Conditions Fewer Conditions

Pressure 29.91 in
Visibility 10.0 miles
Clouds Clear
Heat Index 79 °F
Dew Point 52 °F
Humidity 40%
Rainfall 0.00 in
Snow Depth Not available.
UV 2.0 out of 12
Pollen 10.70 out of 12
Air Quality Not available.
Flu Activity Not available.
METAR KVBT 312135Z AUTO 32008KT 10SM CLR 27/11 A2991 RMK AO1

More Conditions Fewer Conditions

10-Day Weather Forecast

Almanac

Astronomy

Mar. 31, 2015 Rise Set
Actual Time
Civil Twilight
Nautical Twilight
Astronomical Twilight
Moon
Length of Visible Light
Length of Day
Tomorrow will be .
, % of the Moon is Illuminated

Today's Extremes

State Highs State Lows

Community

WunderPhotos

Upload Photos

1,809,844 photos uploaded!

WunderBlogs® & News

Nearby

Air Quality

  Air Quality AQ Index Pollutant
Not available.

Snow Depth

Station Depth Elevation

Earthquake Activity

City Distance Mag. Time & Date
Minimum magnitude displayed is 2.5.

Coastal Water Temperatures

Place Temperature

Stations

Nearby Weather Stations

Station Location Temp. Windchill Dew Point Humidity Wind Precip. Elev Updated Type